Ashfield, MA (01330)

10:05 AM EDT on October 01, 2016 (GMT -0400)
Bear Swamp Orchard | | Change Station

Elev 1500 ft 42.55 °N, 72.83 °W | Updated 2 minutes ago

Overcast
Overcast
47.1 °F
Feels Like 47 °F
N
0.0
Wind Variable Wind from North
Gusts 8.0 mph

Today
High -- | Low -- °F
--% Chance of Precip.
Yesterday
High -- | Low -- °F
Precip. -- in
Pressure 30.32 in
Visibility 10.0 miles
Clouds Scattered Clouds 2100 ft
Mostly Cloudy 3500 ft
Overcast 4800 ft
Windchill 47 °F
Dew Point 47 °F
Humidity 98%
Rainfall 0.32 in
Snow Depth Not available.
6:48 AM 6:31 PM
New Moon, 0% visible
METAR KAQW 011352Z AUTO 12016KT 10SM SCT021 BKN035 OVC048 12/08 A3031 RMK AO2 SLP267 T01220083
Pressure 30.32 in
Visibility 10.0 miles
Clouds Scattered Clouds 2100 ft
Mostly Cloudy 3500 ft
Overcast 4800 ft
Windchill 47 °F
Dew Point 47 °F
Humidity 98%
Rainfall 0.32 in
Snow Depth Not available.
6:48 AM 6:31 PM
New Moon, 0% visible
METAR KAQW 011352Z AUTO 12016KT 10SM SCT021 BKN035 OVC048 12/08 A3031 RMK AO2 SLP267 T01220083

10-Day Weather Forecast

Almanac

Astronomy

Oct. 01, 2016 Rise Set
Actual Time
Civil Twilight
Nautical Twilight
Astronomical Twilight
Moon
Length of Visible Light
Length of Day
Tomorrow will be .
, % of the Moon is Illuminated

Today's Extremes

State Highs State Lows

Community

WunderPhotos

Upload Photos

1,942,932 photos uploaded!

WunderBlog® & News

Nearby

Air Quality

  Air Quality AQ Index Pollutant
Not available.

Snow Depth

Station Depth Elevation

Earthquake Activity

City Distance Mag. Time & Date
Minimum magnitude displayed is 2.5.

Coastal Water Temperatures

Place Temperature

Stations

Nearby Weather Stations

Station Location Temp. Windchill Dew Point Humidity Wind Precip. Elev Updated Type
                   

Watches & Warnings

There are currently no watches in effect.